Skip to main content

NOAA/GLERL Met Station at Michigan City, IN

Previous 5 days (top of hour only)
See also Previous 3 Hours (2 minute increments)
Jump down to Data
Switch to [English][Metric]
Zoom: Click and drag, Pan: shift-click and drag, Unzoom: double-click, Unzoom All






Note: Speed = mean wind during 2-minute period at top of hour,
Gust = max wind during 2-minute period at top of hour,
Peak = max wind during entire hour.
• See also 5-day windrose plot


NOAA/GLERL Met Station at Michigan City, IN

Previous 5 days (top of hour only)
See also Previous 3 Hours (2 minute increments)
Jump up to Graphs
Switch to [English][Metric]
                  Wind  Wind  Wind   Air   Dew   Rel     Sta   PAR
                   Spd   Gst   Dir  Temp    Pt   Hum    Pres uE/m2/
YYYY-MM-DD   CST   m/s   m/s   deg     C     C     %      mb   sec
2024-03-03 13:00   8.7  12.3   155  18.8   7.3  46.8  987.20  1147
2024-03-03 12:00  10.2  12.8   154  17.1   7.6  53.1  988.60  1147
2024-03-03 11:00  10.3  12.5   148  15.6   7.6  58.7  989.80  1148
2024-03-03 10:00  11.4  13.8   150  12.8   7.3  69.1  990.30   984
2024-03-03 09:00  10.6  14.0   147  10.8   6.6  75.0  990.50   813
2024-03-03 08:00  10.1  11.9   148   9.0   5.8  80.4  991.20   492
2024-03-03 07:00   8.2  11.3   143   7.1   5.2  87.8  991.80   164
2024-03-03 06:00   9.2  10.5   144   6.7   5.1  89.4  991.90     0
2024-03-03 05:00   7.6   9.7   143   6.8   5.1  88.6  992.40     0
2024-03-03 04:00   7.6   9.4   145   6.7   5.0  89.1  992.60     0
2024-03-03 03:00   6.9   7.9   139   6.4   5.0  90.8  992.60     0
2024-03-03 02:00   7.0   8.1   143   6.3   4.9  90.4  993.10     0
2024-03-03 01:00   6.5  10.0   146   6.7   4.7  87.0  992.80     0
2024-03-03 00:00   5.9   7.7   154   7.2   4.7  84.1  992.70     0
2024-03-02 23:00   4.9   6.5   147   8.0   4.8  80.2  992.40     0
2024-03-02 22:00   6.0   7.3   147   8.9   4.5  73.7  992.50     0
2024-03-02 21:00   4.7   5.6   144   9.8   4.2  68.0  992.80     0
2024-03-02 20:00   4.4   5.8   134  10.1   4.1  65.9  992.80     0
2024-03-02 19:00   4.0   4.8   140  10.7   4.0  63.1  993.30     0
2024-03-02 18:00   5.2   6.7   144  11.8   4.1  58.9  993.10     0
2024-03-02 17:00   4.7   6.1   162  13.1   3.8  52.9  993.10   164
2024-03-02 16:00   5.3   6.3   147  13.2   3.7  52.1  993.20   328
2024-03-02 15:00   3.2   5.4   172  12.1   3.5  55.3  993.60   655
2024-03-02 14:00   0.1   0.9   268  10.3   3.1  60.9  993.80   983
2024-03-02 13:00   0.8   1.8    35   7.7   2.5  69.7  994.60  1113
2024-03-02 12:00   2.9   3.0   342   8.5   2.5  65.9  995.50  1059
2024-03-02 11:00   1.8   2.0   276   7.3   2.4  71.1  996.10  1025
2024-03-02 10:00   2.4   2.7   195   6.7   2.4  73.8  996.20   547
2024-03-02 09:00   3.7   4.1   179   5.9   2.2  77.1  996.00   725
2024-03-02 08:00   4.0   4.9   183   4.0   2.2  87.7  995.90   328
2024-03-02 07:00   3.2   3.9   187   3.8   2.1  88.7  996.20    41
2024-03-02 06:00   2.6   3.0   194   4.3   1.7  83.2  995.90     0
2024-03-02 05:00   3.6   4.1   185   4.8   1.5  79.2  995.50     0
2024-03-02 04:00   3.6   4.4   189   4.9   1.2  76.9  995.10     0
2024-03-02 03:00   2.5   2.9   191   4.6   0.7  75.5  994.80     0
2024-03-02 02:00   3.0   3.6   191   4.6   0.5  74.6  995.10     0
2024-03-02 01:00   3.7   4.4   174   4.8   0.3  72.5  994.80     0
2024-03-02 00:00   3.9   4.7   170   5.1   0.1  69.8  994.60     0
2024-03-01 23:00   4.6   5.7   177   5.2  -0.1  68.5  994.70     0
2024-03-01 22:00   7.0   8.9   165   5.8  -1.1  61.2  995.00     0
2024-03-01 21:00   5.9   7.4   151   6.0  -2.4  54.8  994.80     0
2024-03-01 20:00   4.6   5.9   142   6.1  -3.0  52.1  994.60     0
2024-03-01 19:00   5.3   7.2   137   6.3  -3.5  49.6  994.60     0
2024-03-01 18:00   4.8   6.0   131   6.9  -4.7  43.3  995.10     0
2024-03-01 17:00   3.9   6.3   146   7.1  -6.3  37.8  995.10     0
2024-03-01 16:00   4.0   5.6   125   7.1  -6.4  37.5  995.60   164
2024-03-01 15:00   4.4   5.6   143   6.8  -7.5  35.2  996.30   328
2024-03-01 14:00   3.5   4.8   159   6.5  -6.8  37.9  996.90   328
2024-03-01 13:00   3.3   4.3   170   6.1  -7.5  36.9  997.40   492
2024-03-01 12:00   5.5   6.6   142   5.4  -7.5  38.9  998.40   492
2024-03-01 11:00   6.0   6.9   174   5.6  -8.2  36.4  999.10   328
2024-03-01 10:00   4.4   5.3   146   3.5  -8.1  42.3  999.00   492
2024-03-01 09:00   5.2   7.1   146   3.0  -9.0  40.9 1000.00   534
2024-03-01 08:00   4.6   5.2   144   1.9  -9.0  44.4 1000.60   493
2024-03-01 07:00   3.5   4.9   146   0.7  -9.0  48.2 1000.90   164
2024-03-01 06:00   2.9   3.7   132   0.2  -9.1  49.7 1001.20     0
2024-03-01 05:00   3.9   4.7   145   0.8  -9.4  46.7 1001.20     0
2024-03-01 04:00   5.3   6.7   164   1.2  -8.9  46.9 1001.40     0
2024-03-01 03:00   3.7   5.0   163   1.5  -8.4  47.8 1001.30     0
2024-03-01 02:00   3.0   4.0   142   1.2  -8.7  47.8 1001.30     0
2024-03-01 01:00   4.2   5.6   147   2.0  -9.0  44.0 1001.50     0
2024-03-01 00:00   4.0   5.2   163   2.2  -8.4  45.4 1002.10     0
2024-02-29 23:00   6.3   7.3   167   2.3  -8.9  43.6 1002.40     0
2024-02-29 22:00   5.9   7.3   166   3.0  -9.0  41.1 1002.70     0
2024-02-29 21:00   6.3   7.8   169   3.3  -9.6  38.4 1002.80     0
2024-02-29 20:00   7.1   9.6   166   3.7  -9.5  37.6 1002.80     0
2024-02-29 19:00   5.5   6.6   169   4.0  -9.2  37.6 1003.20     0
2024-02-29 18:00   5.7   7.6   167   4.8 -10.1  33.2 1003.30     0
2024-02-29 17:00   6.0   6.9   185   5.3 -10.7  30.5 1004.00    75
2024-02-29 16:00   8.6  11.1   183   5.0 -12.0  28.1 1004.20   328
2024-02-29 15:00   6.7   7.7   191   4.1 -12.2  29.4 1004.60   656
2024-02-29 14:00   5.6   6.4   219   2.9 -12.6  31.1 1005.40   984
2024-02-29 13:00   2.3   3.8   160   1.7 -10.4  40.2 1006.30  1148
2024-02-29 12:00   1.3   2.1   312   0.7 -10.5  42.9 1007.50  1149
2024-02-29 11:00   2.8   3.3   260  -2.4 -12.8  45.1 1008.30  1149
2024-02-29 10:00   2.8   3.2   234  -2.8 -11.2  52.5 1008.80   985
2024-02-29 09:00   3.0   4.1   272  -3.0 -12.1  49.7 1008.30   807
2024-02-29 08:00   5.9   6.7   275  -3.3 -11.7  52.3 1008.10   493
2024-02-29 07:00   4.2   5.2   325  -3.3 -11.4  53.7 1006.60   164
2024-02-29 06:00   6.0   6.9   299  -4.1 -13.3  49.1 1006.30     0
2024-02-29 05:00   7.5   8.7   292  -3.8 -11.3  56.0 1006.00     0
2024-02-29 04:00  10.1  11.4   287  -3.8 -13.2  48.5 1005.40     0
2024-02-29 03:00  11.2  12.4   288  -3.4 -13.3  46.7 1005.20     0
2024-02-29 02:00  12.7  14.2   283  -3.4 -15.8  38.0 1004.70     0
2024-02-29 01:00  12.2  13.4   270  -3.0 -14.6  40.6 1004.20     0
2024-02-29 00:00  12.8  14.0   263  -2.7 -15.7  36.4 1003.20     0
2024-02-28 23:00  14.1  15.3   267  -2.3 -16.2  33.9 1002.00     0
2024-02-28 22:00  14.7  17.0   252  -1.8 -14.9  36.2 1001.30     0
2024-02-28 21:00  12.7  14.4   253  -1.3 -12.3  43.1 1000.70     0
2024-02-28 20:00  13.8  16.8   267  -0.9 -14.9  34.0  999.90     0
2024-02-28 19:00  12.2  14.0   257  -0.7 -13.5  37.5  999.50     0
2024-02-28 18:00  10.9  12.5   262  -0.5 -12.0  41.8  998.40     0
2024-02-28 17:00  11.2  12.0   260  -0.7 -12.5  40.5  997.20     0
2024-02-28 16:00   9.1  10.3   276  -0.9 -11.1  46.2  996.20   328
2024-02-28 15:00   8.9  10.0   277  -2.3 -11.2  50.5  995.40   657
2024-02-28 14:00  11.7  14.4   274  -3.9 -11.9  54.1  994.00   985
2024-02-28 13:00  12.3  14.3   284  -5.3 -12.0  59.3  992.90   739
2024-02-28 12:00  14.1  15.9   283  -6.4 -11.9  65.2  991.70   329
2024-02-28 11:00  15.5  17.2   292  -6.1 -11.2  67.5  989.60   472
2024-02-28 10:00  16.3  17.9   291  -5.5 -10.0  70.6  986.70   171
2024-02-28 09:00  14.6  17.1   303  -4.0  -8.3  72.0  984.80   164
2024-02-28 08:00  17.3  19.5   292  -2.1  -5.6  76.8  981.80     0
2024-02-28 07:00  13.7  15.9   303  -1.1  -3.2  85.6  979.80     0
2024-02-28 06:00  15.9  18.5   296   0.4  -2.8  79.2  978.10     0
2024-02-28 05:00  13.7  15.4   287   1.9  -0.2  86.1  976.10     0
2024-02-28 04:00  10.7  11.8   310   4.0   1.9  86.0  973.70     0
2024-02-28 03:00   7.1   9.9   305   6.6   3.2  78.9  973.40     0
2024-02-28 02:00  10.5  11.7   247   8.0   4.3  77.5  971.50     0
2024-02-28 01:00  11.6  12.5   242   8.8   6.8  86.9  967.70     0
2024-02-28 00:00   9.0  10.2   199  17.2  12.6  74.1  965.90     0
2024-02-27 23:00   7.6   8.9   181  18.1  14.2  77.7  965.80     0
2024-02-27 22:00   8.9  11.2   193  17.9  14.1  78.4  966.80     0
2024-02-27 21:00   7.0   9.3   165  16.9  14.1  83.1  965.60     0
2024-02-27 20:00   6.7   8.1   141  17.8  14.0  78.1  967.80     0
2024-02-27 19:00   7.5   9.7   147  18.3  14.2  76.7  968.70     0
2024-02-27 18:00   4.8   6.2   153  19.1  14.5  74.3  969.20     0